createdAt,value
2023-02-26T00:01:52.691Z,4.60
2023-02-26T00:06:57.352Z,3.40
2023-02-26T00:12:06.370Z,3.10
2023-02-26T00:17:36.813Z,1.90
2023-02-26T00:22:41.868Z,2.90
2023-02-26T00:27:44.037Z,2.00
2023-02-26T00:32:48.713Z,5.00
2023-02-26T00:38:00.936Z,3.60
2023-02-26T00:43:05.106Z,4.90
2023-02-26T00:48:35.441Z,2.10
2023-02-26T00:54:33.289Z,3.10
2023-02-26T00:59:34.910Z,3.00
2023-02-26T01:04:37.475Z,4.20
2023-02-26T01:09:39.672Z,4.00
2023-02-26T01:14:41.581Z,4.10
2023-02-26T01:19:56.728Z,2.70
2023-02-26T01:25:14.460Z,4.00
2023-02-26T01:30:17.098Z,2.80
2023-02-26T01:35:43.848Z,2.50
2023-02-26T01:41:08.018Z,3.90
2023-02-26T01:46:36.032Z,3.40
2023-02-26T01:51:48.413Z,4.00
2023-02-26T01:57:05.049Z,2.90
2023-02-26T02:02:10.441Z,3.50
2023-02-26T02:07:12.510Z,3.40
2023-02-26T02:12:14.285Z,4.10
2023-02-26T02:17:37.550Z,4.10
2023-02-26T02:22:52.602Z,4.70
2023-02-26T02:28:36.198Z,4.00
2023-02-26T02:33:49.866Z,3.00
2023-02-26T02:38:58.146Z,5.10
2023-02-26T02:44:03.611Z,3.00
2023-02-26T02:49:27.355Z,4.20
2023-02-26T02:54:47.038Z,3.40
2023-02-26T02:59:54.465Z,3.20
2023-02-26T03:04:57.305Z,3.20
2023-02-26T03:09:59.115Z,3.20
2023-02-26T03:15:02.134Z,3.80
2023-02-26T03:20:26.329Z,3.40
2023-02-26T03:25:54.457Z,4.70
2023-02-26T03:31:03.269Z,2.50
2023-02-26T03:36:21.033Z,4.10
2023-02-26T03:41:49.936Z,4.60
2023-02-26T03:46:56.933Z,2.70
2023-02-26T03:52:03.129Z,4.00
2023-02-26T03:57:23.746Z,4.50
2023-02-26T04:03:28.682Z,3.70
2023-02-26T04:08:31.798Z,3.50
2023-02-26T04:13:33.790Z,3.20
2023-02-26T04:18:37.154Z,4.70
2023-02-26T04:23:40.002Z,5.20
2023-02-26T04:28:42.320Z,4.30
2023-02-26T04:33:44.319Z,5.70
2023-02-26T04:38:46.610Z,5.40
2023-02-26T04:43:48.856Z,5.80
2023-02-26T04:49:00.799Z,4.90
2023-02-26T04:54:02.704Z,5.50
2023-02-26T04:59:04.420Z,2.60
2023-02-26T05:04:10.477Z,2.60
2023-02-26T05:09:12.847Z,2.90
2023-02-26T05:14:15.793Z,3.10
2023-02-26T05:19:17.707Z,2.90
2023-02-26T05:24:21.279Z,4.20
2023-02-26T05:29:23.017Z,2.60
2023-02-26T05:34:25.132Z,3.40
2023-02-26T05:39:26.772Z,3.50
2023-02-26T05:44:28.436Z,4.00
2023-02-26T05:49:30.374Z,2.00
2023-02-26T05:54:32.107Z,3.10
2023-02-26T05:59:43.768Z,6.60
2023-02-26T06:04:46.004Z,6.50
2023-02-26T06:09:47.689Z,4.10
2023-02-26T06:14:49.400Z,3.90
2023-02-26T06:19:52.187Z,6.60
2023-02-26T06:24:55.165Z,8.10
2023-02-26T06:29:57.065Z,4.40
2023-02-26T06:34:58.813Z,3.90
2023-02-26T06:40:00.501Z,3.70
2023-02-26T06:45:02.754Z,3.50
2023-02-26T06:50:05.993Z,2.70
2023-02-26T06:55:08.472Z,5.10
2023-02-26T07:00:10.927Z,6.10
2023-02-26T07:05:13.382Z,3.40
2023-02-26T07:10:15.071Z,6.20
2023-02-26T07:15:17.081Z,2.30
2023-02-26T07:20:18.829Z,3.10
2023-02-26T07:25:20.670Z,4.80
2023-02-26T07:30:22.424Z,3.80
2023-02-26T07:35:24.424Z,5.30
2023-02-26T07:40:26.130Z,3.80
2023-02-26T07:45:27.861Z,5.90
2023-02-26T07:50:30.192Z,3.40
2023-02-26T07:55:31.911Z,5.70
2023-02-26T08:00:33.570Z,5.80
2023-02-26T08:05:35.357Z,5.30
2023-02-26T08:10:37.702Z,5.20
2023-02-26T08:15:41.644Z,5.10
2023-02-26T08:20:43.470Z,4.10
2023-02-26T08:25:45.802Z,4.00
2023-02-26T08:30:47.502Z,4.70
2023-02-26T08:35:49.998Z,2.90
2023-02-26T08:40:52.763Z,3.50
2023-02-26T08:45:56.431Z,3.10
2023-02-26T08:50:58.129Z,2.60
2023-02-26T08:55:59.771Z,3.90
2023-02-26T09:01:01.388Z,7.70
2023-02-26T09:06:04.597Z,5.10
2023-02-26T09:11:06.269Z,2.90
2023-02-26T09:16:08.644Z,4.30
2023-02-26T09:21:10.573Z,3.50
2023-02-26T09:26:12.303Z,3.10
2023-02-26T09:31:14.038Z,2.10
2023-02-26T09:36:15.905Z,1.40
2023-02-26T09:41:26.040Z,2.40
2023-02-26T09:46:47.126Z,4.50
2023-02-26T09:51:55.422Z,4.60
2023-02-26T09:57:00.746Z,3.00
2023-02-26T10:02:16.363Z,2.50
2023-02-26T10:07:33.244Z,2.80
2023-02-26T10:12:42.018Z,3.70
2023-02-26T10:17:56.114Z,2.80
2023-02-26T10:23:18.498Z,4.50
2023-02-26T10:28:44.510Z,7.10
2023-02-26T10:33:58.652Z,3.50
2023-02-26T10:39:20.289Z,5.20
2023-02-26T10:44:30.130Z,10.30
2023-02-26T10:49:51.524Z,4.90
2023-02-26T10:55:11.007Z,3.00
2023-02-26T11:00:19.799Z,3.60
2023-02-26T11:05:23.232Z,3.40
2023-02-26T11:10:28.956Z,3.60
2023-02-26T11:15:30.873Z,4.60
2023-02-26T11:20:37.802Z,3.40
2023-02-26T11:25:41.028Z,2.20
2023-02-26T11:30:44.969Z,7.30
2023-02-26T11:35:47.242Z,2.80
2023-02-26T11:40:56.147Z,3.10
2023-02-26T11:46:00.942Z,3.20
2023-02-26T11:51:05.747Z,3.60
2023-02-26T11:56:25.832Z,2.10
2023-02-26T12:01:29.994Z,2.80
2023-02-26T12:06:31.762Z,2.20
2023-02-26T12:11:50.819Z,3.10
2023-02-26T12:17:21.782Z,3.30
2023-02-26T12:22:54.698Z,7.90
2023-02-26T12:28:02.676Z,5.30
2023-02-26T12:33:18.493Z,8.00
2023-02-26T12:38:34.968Z,4.30
2023-02-26T12:43:45.822Z,6.50
2023-02-26T12:49:05.860Z,8.80
2023-02-26T12:54:34.286Z,6.30
2023-02-26T12:59:50.234Z,8.40
2023-02-26T13:05:13.655Z,6.80
2023-02-26T13:10:53.028Z,4.60
2023-02-26T13:16:22.888Z,4.30
2023-02-26T13:21:48.946Z,4.80
2023-02-26T13:26:52.958Z,4.40
2023-02-26T13:32:03.008Z,3.90
2023-02-26T13:37:05.732Z,18.00
2023-02-26T13:42:30.530Z,7.10
2023-02-26T13:48:03.044Z,5.20
2023-02-26T13:53:27.568Z,5.60
2023-02-26T13:58:35.312Z,4.60
2023-02-26T14:03:46.633Z,3.70
2023-02-26T14:08:51.684Z,5.80
2023-02-26T14:14:16.799Z,5.10
2023-02-26T14:19:28.294Z,5.40
2023-02-26T14:24:38.855Z,4.10
2023-02-26T14:29:53.532Z,4.10
2023-02-26T14:35:00.140Z,7.50
2023-02-26T14:40:10.921Z,6.60
2023-02-26T14:45:32.972Z,3.90
2023-02-26T14:51:06.686Z,6.30
2023-02-26T14:56:27.429Z,4.70
2023-02-26T15:01:47.312Z,6.90
2023-02-26T15:07:07.929Z,6.30
2023-02-26T15:12:23.816Z,10.20
2023-02-26T15:17:53.123Z,9.40
2023-02-26T15:23:22.849Z,9.50
2023-02-26T15:28:41.101Z,11.90
2023-02-26T15:33:42.904Z,6.00
2023-02-26T15:38:55.344Z,11.30
2023-02-26T15:44:28.224Z,8.70
2023-02-26T15:49:34.922Z,6.00
2023-02-26T15:54:50.574Z,6.60
2023-02-26T16:00:00.969Z,6.30
2023-02-26T16:05:04.487Z,6.80
2023-02-26T16:10:15.891Z,9.30
2023-02-26T16:15:35.064Z,14.10
2023-02-26T16:20:47.967Z,11.80
2023-02-26T16:25:54.259Z,13.60
2023-02-26T16:30:58.999Z,10.00
2023-02-26T16:36:24.825Z,12.90
2023-02-26T16:41:30.884Z,9.90
2023-02-26T16:46:46.162Z,10.80
2023-02-26T16:51:48.819Z,6.80
2023-02-26T16:57:16.667Z,7.00
2023-02-26T17:02:22.488Z,11.80
2023-02-26T17:07:33.089Z,10.00
2023-02-26T17:12:49.756Z,9.40
2023-02-26T17:17:51.735Z,19.30
2023-02-26T17:22:54.346Z,17.90
2023-02-26T17:27:57.163Z,11.20
2023-02-26T17:33:04.936Z,15.60
2023-02-26T17:38:07.256Z,17.50
2023-02-26T17:43:10.098Z,19.00
2023-02-26T17:48:14.895Z,11.00
2023-02-26T17:53:18.817Z,9.20
2023-02-26T17:58:27.999Z,13.00
2023-02-26T18:03:29.975Z,17.40
2023-02-26T18:08:34.535Z,13.50
2023-02-26T18:13:36.344Z,17.70
2023-02-26T18:18:38.088Z,30.10
2023-02-26T18:23:40.131Z,27.40
2023-02-26T18:28:42.223Z,35.30
2023-02-26T18:33:45.026Z,27.00
2023-02-26T18:38:47.000Z,24.70
2023-02-26T18:43:49.000Z,22.30
2023-02-26T18:48:51.386Z,17.90
2023-02-26T18:53:53.257Z,22.40
2023-02-26T18:58:55.215Z,24.10
2023-02-26T19:03:56.992Z,28.50
2023-02-26T19:09:02.726Z,16.30
2023-02-26T19:14:05.385Z,16.90
2023-02-26T19:19:11.187Z,13.60
2023-02-26T19:24:14.704Z,14.30
2023-02-26T19:29:18.763Z,9.90
2023-02-26T19:34:21.547Z,19.40
2023-02-26T19:39:23.533Z,12.70
2023-02-26T19:44:35.941Z,14.10
2023-02-26T19:49:37.575Z,15.60
2023-02-26T19:54:39.268Z,20.30
2023-02-26T19:59:41.874Z,13.30
2023-02-26T20:04:44.884Z,9.40
2023-02-26T20:09:48.734Z,10.10
2023-02-26T20:14:50.839Z,13.20
2023-02-26T20:19:52.618Z,11.50
2023-02-26T20:24:54.533Z,10.30
2023-02-26T20:29:56.243Z,12.40
2023-02-26T20:34:59.009Z,11.30
2023-02-26T20:40:00.787Z,16.50
2023-02-26T20:45:02.494Z,9.90
2023-02-26T20:50:04.736Z,10.30
2023-02-26T20:55:07.063Z,10.30
2023-02-26T21:00:15.312Z,7.80
2023-02-26T21:05:17.781Z,10.10
2023-02-26T21:10:20.031Z,12.70
2023-02-26T21:15:21.773Z,11.30
2023-02-26T21:20:23.534Z,10.20
2023-02-26T21:25:25.647Z,10.10
2023-02-26T21:30:28.829Z,10.50
2023-02-26T21:35:30.558Z,6.90
2023-02-26T21:40:32.205Z,8.20
2023-02-26T21:45:36.482Z,6.00
2023-02-26T21:50:38.126Z,5.90
2023-02-26T21:55:39.781Z,5.90
2023-02-26T22:00:41.448Z,3.40
2023-02-26T22:05:43.187Z,6.20
2023-02-26T22:10:47.743Z,5.40
2023-02-26T22:15:49.636Z,5.00
2023-02-26T22:20:51.262Z,4.70
2023-02-26T22:25:53.001Z,4.50
2023-02-26T22:30:56.351Z,6.20
2023-02-26T22:35:59.951Z,6.40
2023-02-26T22:41:01.904Z,5.80
2023-02-26T22:46:05.831Z,6.00
2023-02-26T22:51:07.848Z,5.40
2023-02-26T22:56:09.587Z,5.60
2023-02-26T23:01:11.325Z,6.80
2023-02-26T23:06:13.580Z,2.30
2023-02-26T23:11:15.326Z,6.00
2023-02-26T23:16:17.105Z,5.20
2023-02-26T23:21:19.172Z,5.20
2023-02-26T23:26:20.928Z,4.80
2023-02-26T23:31:22.689Z,4.10
2023-02-26T23:36:24.401Z,5.00
2023-02-26T23:41:26.383Z,3.70
2023-02-26T23:46:28.327Z,3.60
2023-02-26T23:51:30.387Z,3.00
2023-02-26T23:56:32.032Z,4.30
